Nearby METAR Reports

 

YMEN - Melbourne/Essendon, Australia
Distance from station: WNW 102km
Updated: 16/11/2022 12:22
NOT Current
Rain, Mostly cloudy
Rain, Mostly cloudy
 Wind from SSW
Wind: SSW 41 km/h
Temperature: 10°C
Wind Chill: 6°C
Dew Point: 6°C
Humidity: 76%
Barometer: 1016 hPa
Summary: Rain
Clouds: Mostly cloudy
Visibility: 10 km
Cloud details: Partly cloudy 945 m
Mostly cloudy 1372 m
Mostly cloudy 1737 m
2022/11/16 01:22 YMEN 160122Z AUTO 21022KT 150V240 9999 RA SCT031 BKN045 BKN057 10/06 Q1016
YMML - Melbourne Intl A, Australia
Distance from station: WNW 111km
Updated: 03/03/2024 18:30
Overcast
Overcast
 Wind from S
Wind: S 35 km/h
Temperature: 17°C
Dew Point: 10°C
Humidity: 64%
Barometer: 1020 hPa
Clouds: Overcast
Visibility: 10 km
Cloud details: Overcast 914 m
2024/03/03 07:30 YMML 030730Z AUTO 18019KT 9999 // OVC030 17/10 Q1020 RF00.0/000.0
 
YMAV - Avalon Airport, Australia
Distance from station: W 135km
Updated: 03/03/2024 18:30
Partly cloudy
Partly cloudy
 Wind from SSW
Wind: SSW 41 km/h
Temperature: 18°C
Dew Point: 7°C
Humidity: 49%
Barometer: 1020 hPa
Clouds: Partly cloudy
Visibility: 10 km
Cloud details: Partly cloudy 1128 m
2024/03/03 07:30 YMAV 030730Z AUTO 20022KT 9999 // SCT037 18/07 Q1020 RF00.0/000.0
YWGT - Wangaratta Arp, Australia
Distance from station: N 172km
Updated: 13/11/2022 17:17
NOT Current

 Wind from S
Wind: S 9 km/h
Temperature: 17°C
Dew Point: 16°C
Humidity: 94%
Barometer: 1000 hPa
2022/11/13 06:17 YWGT 130617Z AUTO 19005KT //// // ////// 17/16 Q1000 RETS